createdAt,value
2019-04-14T00:02:45.400Z,4.04
2019-04-14T00:05:16.901Z,3.98
2019-04-14T00:07:47.241Z,4.05
2019-04-14T00:10:18.891Z,4.05
2019-04-14T00:12:49.516Z,4.03
2019-04-14T00:15:29.344Z,4.01
2019-04-14T00:17:52.610Z,4.05
2019-04-14T00:20:23.003Z,3.98
2019-04-14T00:22:53.411Z,4.01
2019-04-14T00:25:24.006Z,3.96
2019-04-14T00:27:54.425Z,3.86
2019-04-14T00:30:25.220Z,3.74
2019-04-14T00:32:59.501Z,3.77
2019-04-14T00:35:36.415Z,3.81
2019-04-14T00:38:45.522Z,3.70
2019-04-14T00:41:47.247Z,3.76
2019-04-14T00:44:41.102Z,3.77
2019-04-14T00:47:16.400Z,3.78
2019-04-14T00:49:47.090Z,3.84
2019-04-14T00:52:18.872Z,3.87
2019-04-14T00:54:50.047Z,3.91
2019-04-14T00:57:20.310Z,3.92
2019-04-14T00:59:50.938Z,3.91
2019-04-14T01:02:21.535Z,3.93
2019-04-14T01:04:53.316Z,3.92
2019-04-14T01:07:24.153Z,3.87
2019-04-14T01:09:55.376Z,3.82
2019-04-14T01:12:25.863Z,3.86
2019-04-14T01:14:56.147Z,3.81
2019-04-14T01:17:26.620Z,3.82
2019-04-14T01:19:56.996Z,3.83
2019-04-14T01:22:29.260Z,3.81
2019-04-14T01:25:00.005Z,3.82
2019-04-14T01:27:32.026Z,3.78
2019-04-14T01:30:02.659Z,3.81
2019-04-14T01:32:33.200Z,3.72
2019-04-14T01:35:03.375Z,3.72
2019-04-14T01:37:33.826Z,3.70
2019-04-14T01:40:05.219Z,3.69
2019-04-14T01:42:35.776Z,3.73
2019-04-14T01:45:07.943Z,3.69
2019-04-14T01:47:39.948Z,3.71
2019-04-14T01:50:10.612Z,3.73
2019-04-14T01:53:05.773Z,3.72
2019-04-14T01:55:46.668Z,3.67
2019-04-14T01:58:23.031Z,3.68
2019-04-14T02:01:12.772Z,3.52
2019-04-14T02:03:43.321Z,3.54
2019-04-14T02:06:13.995Z,3.34
2019-04-14T02:08:44.226Z,3.40
2019-04-14T02:11:15.849Z,3.41
2019-04-14T02:13:46.584Z,3.49
2019-04-14T02:16:25.966Z,3.49
2019-04-14T02:18:51.764Z,3.33
2019-04-14T02:21:21.624Z,3.33
2019-04-14T02:23:51.949Z,3.42
2019-04-14T02:26:22.421Z,3.46
2019-04-14T02:28:52.900Z,3.49
2019-04-14T02:31:45.371Z,3.53
2019-04-14T02:34:28.328Z,3.55
2019-04-14T02:36:58.683Z,3.56
2019-04-14T02:39:33.819Z,3.55
2019-04-14T02:44:51.630Z,3.49
2019-04-14T02:49:34.996Z,3.46
2019-04-14T02:52:11.977Z,3.51
2019-04-14T02:54:51.771Z,3.53
2019-04-14T02:57:16.794Z,3.51
2019-04-14T02:59:45.161Z,3.48
2019-04-14T03:04:50.949Z,3.43
2019-04-14T03:12:39.671Z,3.49
2019-04-14T03:15:08.984Z,3.51
2019-04-14T03:18:00.524Z,3.50
2019-04-14T03:20:47.636Z,3.51
2019-04-14T03:23:34.817Z,3.49
2019-04-14T03:26:04.873Z,3.40
2019-04-14T03:28:51.426Z,3.41
2019-04-14T03:37:18.540Z,3.43
2019-04-14T03:44:11.816Z,3.27
2019-04-14T03:51:43.177Z,3.26
2019-04-14T03:53:59.122Z,3.17
2019-04-14T03:56:55.640Z,3.22
2019-04-14T03:59:28.198Z,3.25
2019-04-14T04:01:58.733Z,3.25
2019-04-14T04:04:29.432Z,3.23
2019-04-14T04:06:59.752Z,3.25
2019-04-14T04:09:43.885Z,3.24
2019-04-14T04:12:14.050Z,3.16
2019-04-14T04:14:44.295Z,3.11
2019-04-14T04:17:34.202Z,3.12
2019-04-14T04:20:27.090Z,3.23
2019-04-14T04:23:16.184Z,3.24
2019-04-14T04:25:55.100Z,3.15
2019-04-14T04:28:52.346Z,3.18
2019-04-14T04:31:39.498Z,3.15
2019-04-14T04:34:44.562Z,3.12
2019-04-14T04:37:34.561Z,3.02
2019-04-14T04:40:11.389Z,3.17
2019-04-14T04:42:41.686Z,3.13
2019-04-14T04:45:12.795Z,3.19
2019-04-14T04:47:43.195Z,3.22
2019-04-14T04:50:13.387Z,3.21
2019-04-14T04:52:43.590Z,3.17
2019-04-14T04:55:13.834Z,3.25
2019-04-14T04:57:44.006Z,3.26
2019-04-14T05:00:15.608Z,3.31
2019-04-14T05:02:46.335Z,3.31
2019-04-14T05:05:53.581Z,3.35
2019-04-14T05:08:24.194Z,3.27
2019-04-14T05:11:03.754Z,3.34
2019-04-14T05:13:40.235Z,3.37
2019-04-14T05:16:10.809Z,3.39
2019-04-14T05:18:41.907Z,3.41
2019-04-14T05:21:12.720Z,3.40
2019-04-14T05:23:43.217Z,3.41
2019-04-14T05:26:13.457Z,3.42
2019-04-14T05:28:43.817Z,3.43
2019-04-14T05:31:14.306Z,3.41
2019-04-14T05:33:44.895Z,3.38
2019-04-14T05:36:15.330Z,3.41
2019-04-14T05:38:45.520Z,3.43
2019-04-14T05:41:15.938Z,3.43
2019-04-14T05:43:52.056Z,3.45
2019-04-14T05:46:18.612Z,3.48
2019-04-14T05:48:49.228Z,3.50
2019-04-14T05:51:21.689Z,3.53
2019-04-14T05:53:52.375Z,3.44
2019-04-14T05:56:23.134Z,3.44
2019-04-14T05:58:53.670Z,3.36
2019-04-14T06:01:24.805Z,3.41
2019-04-14T06:03:56.091Z,3.42
2019-04-14T06:06:26.572Z,3.47
2019-04-14T06:08:56.758Z,3.52
2019-04-14T06:11:26.971Z,3.53
2019-04-14T06:13:57.642Z,3.58
2019-04-14T06:16:28.041Z,3.70
2019-04-14T06:18:58.281Z,3.71
2019-04-14T06:21:28.530Z,3.81
2019-04-14T06:23:58.828Z,3.91
2019-04-14T06:26:29.215Z,3.98
2019-04-14T06:28:59.395Z,4.03
2019-04-14T06:31:47.870Z,4.02
2019-04-14T06:34:36.312Z,4.08
2019-04-14T06:37:31.521Z,4.19
2019-04-14T06:40:02.538Z,4.30
2019-04-14T06:42:32.774Z,4.40
2019-04-14T06:45:03.326Z,4.54
2019-04-14T06:47:33.856Z,4.64
2019-04-14T06:50:04.371Z,4.73
2019-04-14T06:52:35.005Z,4.62
2019-04-14T06:55:05.501Z,4.61
2019-04-14T06:57:35.772Z,4.58
2019-04-14T07:00:06.512Z,4.61
2019-04-14T07:02:36.884Z,4.64
2019-04-14T07:05:07.457Z,4.61
2019-04-14T07:07:37.723Z,4.49
2019-04-14T07:10:08.351Z,4.63
2019-04-14T07:12:38.633Z,4.71
2019-04-14T07:15:09.022Z,4.82
2019-04-14T07:17:39.302Z,4.97
2019-04-14T07:20:09.564Z,5.13
2019-04-14T07:22:40.065Z,5.28
2019-04-14T07:25:10.888Z,5.50
2019-04-14T07:27:42.228Z,5.66
2019-04-14T07:30:32.621Z,5.79
2019-04-14T07:33:20.594Z,5.97
2019-04-14T07:36:08.487Z,5.92
2019-04-14T07:38:48.905Z,6.03
2019-04-14T07:41:33.458Z,6.08
2019-04-14T07:44:16.894Z,6.07
2019-04-14T07:47:04.766Z,6.16
2019-04-14T07:49:54.997Z,6.34
2019-04-14T07:52:44.660Z,6.57
2019-04-14T07:55:33.245Z,6.73
2019-04-14T07:58:30.845Z,6.74
2019-04-14T08:01:25.792Z,6.83
2019-04-14T08:04:06.596Z,6.92
2019-04-14T08:06:38.496Z,7.02
2019-04-14T08:09:09.302Z,7.25
2019-04-14T08:11:39.898Z,7.51
2019-04-14T08:14:10.208Z,7.67
2019-04-14T08:16:40.637Z,7.23
2019-04-14T08:19:11.572Z,7.03
2019-04-14T08:21:42.023Z,7.31
2019-04-14T08:24:12.355Z,7.39
2019-04-14T08:26:42.883Z,6.98
2019-04-14T08:29:13.382Z,7.19
2019-04-14T08:31:43.703Z,7.13
2019-04-14T08:34:13.971Z,7.11
2019-04-14T08:36:44.409Z,7.14
2019-04-14T08:39:15.224Z,7.48
2019-04-14T08:42:03.147Z,7.33
2019-04-14T08:44:45.172Z,7.28
2019-04-14T08:47:45.680Z,7.52
2019-04-14T08:50:39.441Z,7.68
2019-04-14T08:53:28.426Z,7.62
2019-04-14T08:56:16.335Z,7.79
2019-04-14T08:59:05.678Z,7.72
2019-04-14T09:01:42.174Z,7.87
2019-04-14T09:04:20.707Z,7.92
2019-04-14T09:06:59.537Z,8.73
2019-04-14T09:09:55.459Z,9.32
2019-04-14T09:12:28.120Z,9.62
2019-04-14T09:14:58.839Z,9.93
2019-04-14T09:17:30.855Z,10.17
2019-04-14T09:20:03.745Z,11.48
2019-04-14T09:22:34.327Z,12.92
2019-04-14T09:25:08.146Z,13.87
2019-04-14T09:27:38.729Z,14.15
2019-04-14T09:30:09.652Z,14.88
2019-04-14T09:32:39.989Z,14.30
2019-04-14T09:35:10.339Z,13.97
2019-04-14T09:37:40.618Z,13.49
2019-04-14T09:40:11.377Z,13.19
2019-04-14T09:42:41.676Z,13.39
2019-04-14T09:45:12.181Z,13.25
2019-04-14T09:47:42.681Z,12.90
2019-04-14T09:50:14.506Z,12.49
2019-04-14T09:52:44.852Z,11.89
2019-04-14T09:55:15.361Z,11.68
2019-04-14T09:57:45.779Z,11.58
2019-04-14T10:00:17.318Z,11.75
2019-04-14T10:02:47.948Z,12.45
2019-04-14T10:05:18.414Z,13.14
2019-04-14T10:07:49.005Z,13.71
2019-04-14T10:10:19.550Z,14.03
2019-04-14T10:12:53.363Z,13.96
2019-04-14T10:15:24.412Z,13.67
2019-04-14T10:17:54.733Z,13.00
2019-04-14T10:20:25.247Z,13.44
2019-04-14T10:22:55.825Z,13.70
2019-04-14T10:25:26.186Z,13.99
2019-04-14T10:27:56.465Z,14.57
2019-04-14T10:30:27.207Z,15.14
2019-04-14T10:32:57.730Z,15.75
2019-04-14T10:35:28.524Z,16.17
2019-04-14T10:37:59.255Z,16.21
2019-04-14T10:40:30.074Z,16.12
2019-04-14T10:43:00.494Z,15.83
2019-04-14T10:45:32.119Z,15.18
2019-04-14T10:48:02.630Z,14.80
2019-04-14T10:50:33.073Z,14.84
2019-04-14T10:53:03.897Z,14.10
2019-04-14T10:55:34.176Z,13.64
2019-04-14T10:58:05.354Z,13.90
2019-04-14T11:00:38.751Z,14.31
2019-04-14T11:03:09.504Z,14.61
2019-04-14T11:05:57.111Z,14.77
2019-04-14T11:08:27.627Z,14.99
2019-04-14T11:10:58.152Z,15.10
2019-04-14T11:13:28.339Z,15.17
2019-04-14T11:15:58.527Z,14.45
2019-04-14T11:18:29.320Z,14.73
2019-04-14T11:21:00.604Z,14.56
2019-04-14T11:23:32.583Z,14.45
2019-04-14T11:26:03.140Z,14.11
2019-04-14T11:28:34.984Z,14.49
2019-04-14T11:31:05.473Z,15.09
2019-04-14T11:33:53.368Z,15.70
2019-04-14T11:36:43.167Z,16.47
2019-04-14T11:39:14.896Z,16.67
2019-04-14T11:41:45.299Z,16.72
2019-04-14T11:44:15.900Z,16.40
2019-04-14T11:46:46.333Z,16.54
2019-04-14T11:49:16.854Z,16.46
2019-04-14T11:51:55.132Z,16.38
2019-04-14T11:54:19.885Z,16.03
2019-04-14T11:56:50.512Z,16.67
2019-04-14T11:59:28.202Z,16.93
2019-04-14T12:02:11.585Z,17.40
2019-04-14T12:04:55.110Z,17.31
2019-04-14T12:08:03.666Z,16.82
2019-04-14T12:10:34.877Z,17.37
2019-04-14T12:13:05.650Z,17.18
2019-04-14T12:15:36.716Z,16.98
2019-04-14T12:18:07.772Z,17.29
2019-04-14T12:20:38.109Z,17.73
2019-04-14T12:23:08.464Z,17.33
2019-04-14T12:25:39.248Z,16.57
2019-04-14T12:28:09.781Z,15.19
2019-04-14T12:30:40.375Z,15.40
2019-04-14T12:33:10.822Z,15.36
2019-04-14T12:35:43.551Z,15.16
2019-04-14T12:38:13.885Z,15.79
2019-04-14T12:40:44.419Z,15.59
2019-04-14T12:43:40.128Z,15.04
2019-04-14T12:46:29.764Z,15.17
2019-04-14T12:49:11.304Z,15.25
2019-04-14T12:52:01.082Z,15.09
2019-04-14T12:54:32.515Z,14.84
2019-04-14T12:57:02.829Z,14.80
2019-04-14T12:59:35.560Z,14.30
2019-04-14T13:02:14.090Z,14.37
2019-04-14T13:04:44.347Z,14.84
2019-04-14T13:07:14.786Z,15.23
2019-04-14T13:09:45.623Z,15.54
2019-04-14T13:12:15.798Z,15.52
2019-04-14T13:14:46.409Z,15.40
2019-04-14T13:17:16.987Z,15.29
2019-04-14T13:19:47.948Z,14.83
2019-04-14T13:22:18.360Z,14.67
2019-04-14T13:24:49.434Z,14.20
2019-04-14T13:27:19.867Z,13.48
2019-04-14T13:29:50.978Z,13.75
2019-04-14T13:32:21.646Z,14.01
2019-04-14T13:34:52.310Z,13.86
2019-04-14T13:37:22.787Z,13.74
2019-04-14T13:39:53.550Z,13.80
2019-04-14T13:42:24.081Z,13.89
2019-04-14T13:44:54.610Z,13.50
2019-04-14T13:47:25.433Z,13.80
2019-04-14T13:49:56.240Z,13.73
2019-04-14T13:52:26.851Z,13.96
2019-04-14T13:54:57.621Z,14.01
2019-04-14T13:57:28.769Z,14.22
2019-04-14T14:00:00.142Z,14.94
2019-04-14T14:02:30.472Z,15.68
2019-04-14T14:05:01.422Z,16.39
2019-04-14T14:07:31.874Z,16.45
2019-04-14T14:10:02.720Z,16.02
2019-04-14T14:12:42.100Z,15.73
2019-04-14T14:15:32.382Z,15.74
2019-04-14T14:18:20.963Z,15.74
2019-04-14T14:21:02.135Z,15.03
2019-04-14T14:23:51.167Z,15.30
2019-04-14T14:26:23.624Z,15.31
2019-04-14T14:28:54.299Z,15.47
2019-04-14T14:31:25.080Z,15.48
2019-04-14T14:33:55.483Z,14.99
2019-04-14T14:36:25.896Z,14.04
2019-04-14T14:38:56.521Z,13.70
2019-04-14T14:41:27.183Z,14.25
2019-04-14T14:43:58.033Z,14.32
2019-04-14T14:47:06.260Z,14.47
2019-04-14T14:49:53.168Z,14.45
2019-04-14T14:52:23.863Z,14.57
2019-04-14T14:54:54.371Z,14.48
2019-04-14T14:57:24.857Z,14.11
2019-04-14T14:59:55.460Z,14.29
2019-04-14T15:02:26.841Z,14.29
2019-04-14T15:04:57.473Z,14.20
2019-04-14T15:07:28.581Z,14.15
2019-04-14T15:09:58.944Z,13.53
2019-04-14T15:12:29.837Z,13.70
2019-04-14T15:15:00.381Z,13.78
2019-04-14T15:17:31.254Z,13.65
2019-04-14T15:20:01.929Z,13.80
2019-04-14T15:22:32.980Z,13.84
2019-04-14T15:25:03.492Z,13.80
2019-04-14T15:27:34.102Z,13.66
2019-04-14T15:30:06.809Z,13.61
2019-04-14T15:32:37.329Z,13.52
2019-04-14T15:35:09.113Z,13.51
2019-04-14T15:37:39.948Z,13.53
2019-04-14T15:40:10.953Z,13.17
2019-04-14T15:42:42.109Z,13.34
2019-04-14T15:45:14.172Z,13.41
2019-04-14T15:47:44.699Z,13.26
2019-04-14T15:50:15.770Z,13.18
2019-04-14T15:52:46.378Z,13.00
2019-04-14T15:55:18.078Z,12.42
2019-04-14T15:58:07.732Z,12.54
2019-04-14T16:00:46.735Z,12.45
2019-04-14T16:03:39.109Z,12.44
2019-04-14T16:06:17.094Z,12.45
2019-04-14T16:08:57.498Z,12.30
2019-04-14T16:11:45.938Z,12.33
2019-04-14T16:14:38.056Z,12.25
2019-04-14T16:17:26.478Z,12.26
2019-04-14T16:20:02.000Z,12.11
2019-04-14T16:22:39.007Z,12.14
2019-04-14T16:25:10.287Z,11.93
2019-04-14T16:28:18.034Z,11.70
2019-04-14T16:31:14.992Z,11.54
2019-04-14T16:34:04.001Z,11.33
2019-04-14T16:36:35.104Z,11.33
2019-04-14T16:39:08.067Z,11.20
2019-04-14T16:41:39.918Z,11.07
2019-04-14T16:44:10.658Z,11.01
2019-04-14T16:46:41.473Z,10.99
2019-04-14T16:49:12.168Z,10.85
2019-04-14T16:52:03.132Z,10.81
2019-04-14T16:54:59.347Z,10.69
2019-04-14T16:57:47.817Z,10.60
2019-04-14T17:00:29.759Z,10.33
2019-04-14T17:03:00.383Z,10.16
2019-04-14T17:05:30.879Z,9.85
2019-04-14T17:08:01.612Z,9.69
2019-04-14T17:10:32.189Z,9.85
2019-04-14T17:13:04.079Z,9.78
2019-04-14T17:15:53.410Z,9.67
2019-04-14T17:18:49.801Z,9.70
2019-04-14T17:21:48.229Z,9.50
2019-04-14T17:24:37.739Z,9.36
2019-04-14T17:27:28.557Z,9.34
2019-04-14T17:30:25.268Z,9.18
2019-04-14T17:33:17.239Z,9.14
2019-04-14T17:36:06.672Z,9.06
2019-04-14T17:38:58.775Z,8.87
2019-04-14T17:41:38.725Z,8.87
2019-04-14T17:44:19.130Z,8.73
2019-04-14T17:47:24.430Z,8.65
2019-04-14T17:50:09.367Z,8.54
2019-04-14T17:52:43.321Z,8.42
2019-04-14T17:55:49.889Z,8.27
2019-04-14T17:58:28.263Z,8.25
2019-04-14T18:01:06.232Z,8.13
2019-04-14T18:03:55.778Z,7.78
2019-04-14T18:06:42.490Z,7.79
2019-04-14T18:09:38.139Z,7.65
2019-04-14T18:12:17.352Z,7.51
2019-04-14T18:15:19.028Z,7.45
2019-04-14T18:18:11.549Z,7.31
2019-04-14T18:20:47.511Z,7.31
2019-04-14T18:23:18.093Z,7.24
2019-04-14T18:25:50.456Z,7.20
2019-04-14T18:28:55.428Z,7.10
2019-04-14T18:31:47.597Z,7.04
2019-04-14T18:34:45.736Z,6.81
2019-04-14T18:37:26.372Z,6.65
2019-04-14T18:40:16.278Z,6.47
2019-04-14T18:43:20.467Z,6.39
2019-04-14T18:45:57.161Z,6.23
2019-04-14T18:48:58.824Z,6.20
2019-04-14T18:51:47.746Z,6.14
2019-04-14T18:54:37.305Z,6.01
2019-04-14T18:57:27.140Z,5.85
2019-04-14T19:00:19.030Z,5.76
2019-04-14T19:02:49.827Z,5.70
2019-04-14T19:05:21.019Z,5.60
2019-04-14T19:07:51.746Z,5.46
2019-04-14T19:10:23.760Z,5.43
2019-04-14T19:13:03.644Z,5.41
2019-04-14T19:15:43.720Z,5.34
2019-04-14T19:18:25.855Z,5.27
2019-04-14T19:21:27.903Z,5.14
2019-04-14T19:23:58.610Z,5.01
2019-04-14T19:26:29.445Z,4.96
2019-04-14T19:29:00.264Z,4.84
2019-04-14T19:31:30.762Z,4.72
2019-04-14T19:34:01.650Z,4.70
2019-04-14T19:36:32.599Z,4.64
2019-04-14T19:39:04.860Z,4.63
2019-04-14T19:41:36.442Z,4.56
2019-04-14T19:44:06.963Z,4.46
2019-04-14T19:46:37.787Z,4.46
2019-04-14T19:49:08.419Z,4.43
2019-04-14T19:51:42.065Z,4.34
2019-04-14T19:54:15.670Z,4.29
2019-04-14T19:56:49.761Z,4.22
2019-04-14T19:59:20.318Z,4.11
2019-04-14T20:01:50.735Z,4.04
2019-04-14T20:04:21.945Z,3.96
2019-04-14T20:06:53.415Z,3.95
2019-04-14T20:09:24.214Z,3.91
2019-04-14T20:11:55.075Z,3.83
2019-04-14T20:14:25.583Z,3.84
2019-04-14T20:17:07.918Z,3.78
2019-04-14T20:20:08.774Z,3.76
2019-04-14T20:22:50.617Z,3.73
2019-04-14T20:25:33.835Z,3.69
2019-04-14T20:28:32.261Z,3.59
2019-04-14T20:31:22.264Z,3.57
2019-04-14T20:33:54.141Z,3.54
2019-04-14T20:36:27.753Z,3.50
2019-04-14T20:38:58.190Z,3.40
2019-04-14T20:41:28.586Z,3.27
2019-04-14T20:44:01.727Z,3.01
2019-04-14T20:46:31.294Z,3.01
2019-04-14T20:49:03.055Z,3.03
2019-04-14T20:51:33.653Z,2.94
2019-04-14T20:54:04.173Z,2.88
2019-04-14T20:56:36.008Z,2.81
2019-04-14T20:59:06.567Z,2.82
2019-04-14T21:01:40.238Z,2.80
2019-04-14T21:04:33.045Z,2.77
2019-04-14T21:07:30.804Z,2.78
2019-04-14T21:10:27.139Z,2.73
2019-04-14T21:13:16.680Z,2.67
2019-04-14T21:15:51.065Z,2.62
2019-04-14T21:18:39.644Z,2.55
2019-04-14T21:21:26.893Z,2.46
2019-04-14T21:24:07.030Z,2.35
2019-04-14T21:27:11.628Z,2.38
2019-04-14T21:30:03.804Z,2.40
2019-04-14T21:32:48.588Z,2.29
2019-04-14T21:35:36.696Z,2.23
2019-04-14T21:38:15.021Z,2.17
2019-04-14T21:40:58.012Z,2.05
2019-04-14T21:43:28.277Z,1.98
2019-04-14T21:45:58.514Z,1.96
2019-04-14T21:48:28.799Z,1.91
2019-04-14T21:50:59.281Z,1.86
2019-04-14T21:53:29.850Z,1.86
2019-04-14T21:56:12.462Z,1.86
2019-04-14T21:58:51.104Z,1.85
2019-04-14T22:02:11.321Z,1.82
2019-04-14T22:04:59.635Z,1.75
2019-04-14T22:07:55.881Z,1.76
2019-04-14T22:10:41.417Z,1.75
2019-04-14T22:13:11.911Z,1.72
2019-04-14T22:15:42.311Z,1.58
2019-04-14T22:18:12.595Z,1.52
2019-04-14T22:20:42.884Z,1.45
2019-04-14T22:23:13.589Z,1.38
2019-04-14T22:25:44.007Z,1.31
2019-04-14T22:28:14.344Z,1.23
2019-04-14T22:30:44.488Z,1.22
2019-04-14T22:33:14.863Z,1.19
2019-04-14T22:35:45.070Z,1.14
2019-04-14T22:38:15.722Z,1.13
2019-04-14T22:40:45.900Z,1.11
2019-04-14T22:43:16.297Z,1.07
2019-04-14T22:45:46.475Z,1.07
2019-04-14T22:48:16.675Z,1.03
2019-04-14T22:50:46.954Z,0.98
2019-04-14T22:53:17.181Z,0.90
2019-04-14T22:55:47.421Z,0.85
2019-04-14T22:58:19.141Z,0.83
2019-04-14T23:00:57.086Z,0.80
2019-04-14T23:03:43.692Z,0.75
2019-04-14T23:06:31.720Z,0.71
2019-04-14T23:09:19.941Z,0.67
2019-04-14T23:12:05.534Z,0.62
2019-04-14T23:14:45.650Z,0.56
2019-04-14T23:17:33.890Z,0.51
2019-04-14T23:20:23.143Z,0.49
2019-04-14T23:23:10.492Z,0.48
2019-04-14T23:25:40.656Z,0.41
2019-04-14T23:28:11.069Z,0.37
2019-04-14T23:30:41.406Z,0.31
2019-04-14T23:33:11.529Z,0.33
2019-04-14T23:35:43.433Z,0.25
2019-04-14T23:38:13.755Z,0.24
2019-04-14T23:40:43.915Z,0.22
2019-04-14T23:43:14.418Z,0.18
2019-04-14T23:45:44.685Z,0.20
2019-04-14T23:48:14.823Z,0.21
2019-04-14T23:50:45.432Z,0.06
2019-04-14T23:53:15.802Z,0.18
2019-04-14T23:55:45.986Z,0.21
2019-04-14T23:58:16.293Z,0.17
